Time;durP1;ratioP1;P1;durP2;ratioP2;P2;SDS_P1;SDS_P2;PMS_P1;PMS_P2;Temp;Humidity;BMP_temperature;BMP_pressure;BME280_temperature;BME280_humidity;BME280_pressure;Samples;Min_cycle;Max_cycle;Signal;HPM_P1;HPM_P2
2021/03/25 00:00:37;;;;;;;61.65;36.73;;;;;;;6.01;73.61;101007.23;1675732;84;25664;-74
2021/03/25 00:03:07;;;;;;;55.55;33.85;;;;;;;6.02;73.61;101002.38;1689977;83;25868;-74
2021/03/25 00:05:35;;;;;;;55.35;33.85;;;;;;;6.03;73.43;100994.97;1694588;83;25776;-74
2021/03/25 00:08:05;;;;;;;59.05;35.78;;;;;;;6.00;73.34;100994.73;1695267;83;25753;-74
2021/03/25 00:10:35;;;;;;;60.43;35.35;;;;;;;5.99;73.40;100997.44;1694635;83;25900;-74
2021/03/25 00:13:02;;;;;;;55.85;34.35;;;;;;;5.97;73.33;100992.39;1694576;83;25885;-74
2021/03/25 00:15:29;;;;;;;55.35;33.38;;;;;;;5.99;73.32;100992.25;1695541;83;25828;-75
2021/03/25 00:17:56;;;;;;;52.50;33.20;;;;;;;6.00;73.25;100988.25;1691164;83;26069;-76
2021/03/25 00:20:23;;;;;;;55.25;33.33;;;;;;;5.99;73.05;100980.09;1692753;83;26203;-76
2021/03/25 00:22:50;;;;;;;55.28;34.58;;;;;;;5.98;73.06;100980.23;1692927;83;25339;-74
2021/03/25 00:25:21;;;;;;;55.67;32.60;;;;;;;6.00;73.03;100979.17;1695011;83;25810;-74
2021/03/25 00:27:47;;;;;;;52.90;32.75;;;;;;;6.03;73.01;100977.26;1694487;83;25747;-74
2021/03/25 00:30:18;;;;;;;57.50;36.42;;;;;;;6.03;72.90;100980.70;1692630;83;26310;-74
2021/03/25 00:32:44;;;;;;;54.77;33.30;;;;;;;6.04;72.81;100978.45;1696044;83;25766;-74
2021/03/25 00:35:12;;;;;;;53.77;34.90;;;;;;;6.05;72.67;100979.27;1674066;83;28278;-74
2021/03/25 00:37:39;;;;;;;53.90;32.35;;;;;;;6.03;72.63;100978.11;1696530;83;25853;-74
2021/03/25 00:40:09;;;;;;;58.33;34.05;;;;;;;6.00;72.42;100975.28;1694607;83;25800;-74
2021/03/25 00:42:36;;;;;;;54.88;34.08;;;;;;;5.96;72.42;100971.26;1696107;83;25299;-74
2021/03/25 00:45:06;;;;;;;51.58;32.05;;;;;;;5.96;72.52;100973.03;1696229;83;25736;-74
2021/03/25 00:47:32;;;;;;;;;;;;;;;5.96;72.50;100973.03;1697805;83;25847;-74
2021/03/25 00:49:59;;;;;;;50.05;29.92;;;;;;;5.98;72.49;100968.55;1694681;83;25720;-74
2021/03/25 00:52:25;;;;;;;49.53;29.27;;;;;;;5.96;72.19;100966.55;1695924;83;26299;-74
2021/03/25 00:54:51;;;;;;;45.35;28.57;;;;;;;5.96;72.19;100965.25;1695947;83;25796;-74
2021/03/25 00:57:18;;;;;;;44.65;28.80;;;;;;;5.97;71.93;100960.40;1695639;83;25991;-74
2021/03/25 00:59:44;;;;;;;42.17;28.25;;;;;;;5.96;71.62;100965.25;1693584;83;25788;-74
2021/03/25 01:02:11;;;;;;;46.55;28.45;;;;;;;5.94;71.49;100961.47;1695801;82;25901;-74
2021/03/25 01:04:37;;;;;;;42.33;27.90;;;;;;;5.95;71.27;100959.24;1697273;82;25795;-74
2021/03/25 01:07:04;;;;;;;40.12;25.88;;;;;;;5.97;71.04;100957.81;1696794;82;25816;-74
2021/03/25 01:09:30;;;;;;;41.37;26.40;;;;;;;5.97;70.81;100959.95;1698130;82;25851;-74
2021/03/25 01:11:58;;;;;;;44.08;27.90;;;;;;;5.96;70.67;100950.98;1696219;82;25817;-74
2021/03/25 01:14:25;;;;;;;42.25;27.00;;;;;;;5.95;70.57;100954.05;1696369;82;25729;-74
2021/03/25 01:16:54;;;;;;;44.20;28.20;;;;;;;5.90;70.35;100953.55;1697354;82;26003;-74
2021/03/25 01:19:30;;;;;;;42.50;26.40;;;;;;;5.91;70.52;100950.00;1695505;83;26507;-74
2021/03/25 01:21:58;;;;;;;39.88;26.77;;;;;;;5.87;70.28;100944.72;1696987;83;26603;-74
2021/03/25 01:24:26;;;;;;;42.58;25.80;;;;;;;5.87;70.25;100951.20;1696668;83;25753;-74
2021/03/25 01:26:54;;;;;;;42.55;27.15;;;;;;;5.87;70.21;100944.72;1698119;83;25745;-74
2021/03/25 01:29:21;;;;;;;40.73;25.77;;;;;;;5.87;70.09;100944.72;1697058;82;25767;-75
2021/03/25 01:31:48;;;;;;;42.10;26.68;;;;;;;5.90;69.99;100945.77;1696578;82;25769;-74
2021/03/25 01:34:19;;;;;;;42.93;26.77;;;;;;;5.91;70.01;100938.33;1698185;82;25755;-74
2021/03/25 01:36:47;;;;;;;46.48;28.07;;;;;;;5.95;69.86;100942.86;1698777;83;25922;-74
2021/03/25 01:39:14;;;;;;;40.73;26.77;;;;;;;5.96;69.80;100941.42;1697729;82;25872;-74
2021/03/25 01:41:41;;;;;;;43.50;28.87;;;;;;;5.97;69.68;100945.69;1697898;83;25990;-74
2021/03/25 01:44:31;;;;;;;42.38;28.05;;;;;;;5.98;69.71;100944.73;1695239;82;25895;-74
2021/03/25 01:46:57;;;;;;;41.13;27.00;;;;;;;5.97;69.65;100946.98;1697575;82;25727;-74
2021/03/25 01:49:24;;;;;;;44.73;25.72;;;;;;;5.94;69.55;100947.20;1696961;82;26019;-74
2021/03/25 01:52:18;;;;;;;42.35;26.77;;;;;;;5.88;69.65;100941.16;1697689;82;25701;-74
2021/03/25 01:55:05;;;;;;;41.65;28.80;;;;;;;5.86;69.82;100937.86;1695182;82;26186;-75
2021/03/25 01:58:01;;;;;;;44.85;28.57;;;;;;;5.85;69.99;100938.81;1696496;82;25935;-73
2021/03/25 02:00:56;;;;;;;45.73;29.48;;;;;;;5.85;70.04;100941.89;1696835;82;26585;-74
2021/03/25 02:03:39;;;;;;;50.35;31.60;;;;;;;5.81;70.09;100937.87;1696516;82;25772;-74
2021/03/25 02:06:25;;;;;;;51.25;31.68;;;;;;;5.77;70.23;100932.11;1695728;83;26028;-74
2021/03/25 02:09:29;;;;;;;54.85;32.63;;;;;;;5.73;70.29;100935.90;1695636;83;25753;-74
2021/03/25 02:12:14;;;;;;;48.68;31.07;;;;;;;5.70;70.48;100925.73;1694716;82;26173;-74
2021/03/25 02:15:18;;;;;;;53.30;31.73;;;;;;;5.74;70.63;100933.65;1696049;82;25730;-74
2021/03/25 02:18:06;;;;;;;48.65;32.13;;;;;;;5.71;70.77;100927.41;1693983;83;25848;-74
2021/03/25 02:20:45;;;;;;;50.00;31.73;;;;;;;5.69;70.88;100925.39;1693267;83;25681;-75
2021/03/25 02:23:46;;;;;;;49.67;32.03;;;;;;;5.72;71.05;100924.67;1693947;84;26579;-75
2021/03/25 02:26:21;;;;;;;47.38;30.45;;;;;;;5.76;71.09;100924.80;1695886;83;26554;-75
2021/03/25 02:29:14;;;;;;;51.30;32.40;;;;;;;5.82;71.16;100927.39;1694533;83;25894;-74
2021/03/25 02:31:46;;;;;;;55.70;34.27;;;;;;;5.84;71.15;100924.66;1691449;83;25787;-75
2021/03/25 02:34:24;;;;;;;55.70;34.70;;;;;;;5.87;71.24;100923.97;1693206;83;25741;-75
2021/03/25 02:36:56;;;;;;;57.03;35.65;;;;;;;5.93;71.29;100926.55;1691578;83;26659;-75
2021/03/25 02:39:37;;;;;;;59.75;35.17;;;;;;;5.90;71.25;100921.61;1692986;83;25924;-74
2021/03/25 02:42:07;;;;;;;59.10;34.92;;;;;;;5.92;71.37;100924.87;1695458;83;25838;-75
2021/03/25 02:44:54;;;;;;;60.55;39.63;;;;;;;5.89;71.39;100925.97;1695953;83;25888;-74
2021/03/25 02:47:23;;;;;;;61.85;38.48;;;;;;;5.89;71.55;100922.08;1633475;86;25914;-73
2021/03/25 02:50:05;;;;;;;60.33;38.08;;;;;;;5.88;71.57;100920.89;1641146;86;25975;-73
2021/03/25 02:52:36;;;;;;;64.50;37.80;;;;;;;5.85;71.66;100911.58;1647055;86;25788;-74
2021/03/25 02:55:08;;;;;;;59.48;38.38;;;;;;;5.85;71.80;100918.06;1642807;86;25755;-73
2021/03/25 02:57:40;;;;;;;66.80;39.88;;;;;;;5.85;71.88;100916.77;1640292;85;25813;-73
2021/03/25 03:00:13;;;;;;;67.37;40.00;;;;;;;5.84;71.95;100923.36;1641279;85;25445;-73
2021/03/25 03:02:45;;;;;;;59.42;39.00;;;;;;;5.81;71.99;100915.82;1638234;85;25920;-73
2021/03/25 03:05:18;;;;;;;62.15;38.50;;;;;;;5.82;72.13;100919.61;1642207;85;25786;-73
2021/03/25 03:08:08;;;;;;;60.80;36.90;;;;;;;5.83;72.13;100919.13;1641619;85;26029;-73
2021/03/25 03:10:44;;;;;;;62.83;37.58;;;;;;;5.88;72.26;100917.82;1639239;86;26496;-72
2021/03/25 03:13:14;;;;;;;62.67;38.28;;;;;;;5.95;72.34;100915.13;1640932;85;25873;-72
2021/03/25 03:16:15;;;;;;;57.80;37.33;;;;;;;6.00;72.28;100918.20;1668318;84;26677;-75
2021/03/25 03:18:46;;;;;;;60.65;38.17;;;;;;;6.02;72.21;100914.64;1688361;83;25777;-74
2021/03/25 03:21:41;;;;;;;60.15;37.85;;;;;;;6.04;72.15;100911.46;1648119;85;26391;-73
2021/03/25 03:24:22;;;;;;;65.72;41.45;;;;;;;5.99;72.28;100915.23;1655460;85;26045;-75
2021/03/25 03:27:25;;;;;;;61.80;39.98;;;;;;;5.97;72.33;100913.25;1647192;85;25823;-74
2021/03/25 03:29:54;;;;;;;67.75;40.67;;;;;;;6.00;72.39;100916.89;1647860;85;25925;-74
2021/03/25 03:32:46;;;;;;;58.15;38.28;;;;;;;5.96;72.35;100913.36;1647687;85;26277;-74
2021/03/25 03:35:23;;;;;;;63.87;40.58;;;;;;;5.96;72.44;100915.95;1648372;85;25843;-74
2021/03/25 03:37:55;;;;;;;62.93;39.18;;;;;;;5.92;72.45;100915.35;1647803;85;25815;-74
2021/03/25 03:40:33;;;;;;;65.83;40.70;;;;;;;5.91;72.52;100920.64;1646847;85;25837;-74
2021/03/25 03:43:05;;;;;;;62.30;38.73;;;;;;;5.94;72.68;100920.43;1647688;85;25787;-73
2021/03/25 03:45:37;;;;;;;64.17;38.83;;;;;;;5.94;72.66;100917.36;1647529;85;25821;-73
2021/03/25 03:48:13;;;;;;;64.17;39.05;;;;;;;5.89;72.50;100923.38;1647269;85;25818;-73
2021/03/25 03:50:46;;;;;;;63.58;38.40;;;;;;;5.89;72.63;100914.30;1647341;85;25977;-73
2021/03/25 03:53:12;;;;;;;58.35;36.83;;;;;;;5.87;72.60;100912.30;1647855;85;25863;-73
2021/03/25 03:55:39;;;;;;;63.83;35.90;;;;;;;5.91;72.73;100912.38;1647795;85;26573;-73
2021/03/25 03:58:23;;;;;;;54.15;36.05;;;;;;;5.95;72.80;100911.24;1658732;83;25810;-73
2021/03/25 04:01:04;;;;;;;57.90;36.93;;;;;;;6.00;72.96;100911.70;1694858;83;26457;-72
2021/03/25 04:03:45;;;;;;;61.35;38.38;;;;;;;6.07;72.76;100912.51;1673155;84;25942;-72
2021/03/25 04:06:25;;;;;;;60.95;36.50;;;;;;;6.02;72.67;100913.34;1695165;83;25724;-72
2021/03/25 04:09:37;;;;;;;67.20;39.73;;;;;;;5.99;72.49;100919.13;1693997;83;26140;-75
2021/03/25 04:12:14;;;;;;;64.72;40.43;;;;;;;5.79;72.54;100923.27;1692063;83;25698;-74
2021/03/25 04:14:48;;;;;;;61.68;39.18;;;;;;;5.78;72.90;100924.22;1695209;83;25781;-75
2021/03/25 04:17:29;;;;;;;64.58;39.50;;;;;;;5.76;72.90;100927.88;1692984;83;26593;-74
2021/03/25 04:20:02;;;;;;;65.65;40.30;;;;;;;5.78;73.09;100928.55;1694730;83;25840;-74
2021/03/25 04:22:36;;;;;;;59.40;38.88;;;;;;;5.81;73.18;100925.75;1694960;83;25909;-74
2021/03/25 04:25:10;;;;;;;61.68;39.67;;;;;;;5.84;73.28;100923.36;1693563;83;25718;-75
2021/03/25 04:27:45;;;;;;;58.17;39.35;;;;;;;5.89;73.28;100925.13;1692635;83;25682;-75
2021/03/25 04:30:22;;;;;;;61.53;38.60;;;;;;;5.85;73.11;100926.33;1694405;83;26016;-73
2021/03/25 04:32:49;;;;;;;63.90;38.48;;;;;;;5.78;73.13;100925.96;1693992;83;25975;-74
2021/03/25 04:35:20;;;;;;;59.27;36.65;;;;;;;5.72;73.13;100929.05;1694272;83;25815;-75
2021/03/25 04:37:47;;;;;;;57.58;39.08;;;;;;;5.70;73.28;100928.33;1693168;83;25808;-70
2021/03/25 04:40:19;;;;;;;69.05;43.17;;;;;;;5.67;73.26;100934.58;1693937;83;25499;-70
2021/03/25 04:42:47;;;;;;;68.92;42.25;;;;;;;5.68;73.38;100928.94;1694661;83;25327;-70
2021/03/25 04:45:45;;;;;;;70.45;43.83;;;;;;;5.69;73.42;100928.80;1694919;83;25513;-70
2021/03/25 04:48:16;;;;;;;71.25;44.13;;;;;;;5.72;73.45;100932.45;1695041;83;25698;-70
2021/03/25 04:51:00;;;;;;;70.60;43.75;;;;;;;5.79;73.56;100923.74;1695608;83;26036;-70
2021/03/25 04:53:32;;;;;;;73.00;44.67;;;;;;;5.85;73.58;100915.47;1695167;83;25787;-70
2021/03/25 04:55:58;;;;;;;70.95;46.80;;;;;;;5.82;73.32;100926.09;1693955;83;25632;-70
2021/03/25 04:58:45;;;;;;;77.55;47.27;;;;;;;5.69;73.33;100924.91;1695371;83;25368;-70
2021/03/25 05:01:26;;;;;;;79.85;49.77;;;;;;;5.69;73.63;100928.80;1685367;83;25847;-70
2021/03/25 05:04:02;;;;;;;79.97;48.40;;;;;;;5.74;73.76;100929.76;1696027;82;25970;-70
2021/03/25 05:06:33;;;;;;;76.00;46.35;;;;;;;5.76;73.70;100929.99;1695336;83;25613;-70
2021/03/25 05:09:00;;;;;;;70.67;44.23;;;;;;;5.69;73.59;100934.47;1688049;83;25976;-70
2021/03/25 05:11:28;;;;;;;75.00;45.75;;;;;;;5.63;73.62;100940.14;1693120;82;25743;-70
2021/03/25 05:13:58;;;;;;;77.78;46.18;;;;;;;5.64;73.85;100938.70;1694988;83;25868;-70
2021/03/25 05:16:48;;;;;;;71.10;43.95;;;;;;;5.66;73.93;100929.05;1694551;83;25344;-70
2021/03/25 05:19:50;;;;;;;72.42;45.75;;;;;;;5.67;73.96;100941.53;1694542;83;25766;-74
2021/03/25 05:22:54;;;;;;;75.03;45.17;;;;;;;5.66;73.97;100942.02;1694349;83;25903;-75
2021/03/25 05:25:38;;;;;;;73.85;43.52;;;;;;;5.67;74.05;100941.53;1693764;82;25856;-70
2021/03/25 05:28:13;;;;;;;75.55;44.90;;;;;;;5.67;74.03;100938.95;1694445;83;25767;-69
2021/03/25 05:30:41;;;;;;;70.40;44.10;;;;;;;5.68;74.08;100932.83;1695636;83;25490;-74
2021/03/25 05:33:13;;;;;;;75.08;43.15;;;;;;;5.75;74.30;100937.40;1693936;83;25862;-74
2021/03/25 05:35:53;;;;;;;71.02;44.10;;;;;;;5.82;74.22;100938.24;1696021;83;26540;-74
2021/03/25 05:38:21;;;;;;;70.83;44.13;;;;;;;5.85;74.09;100941.89;1695286;82;25725;-74
2021/03/25 05:40:58;;;;;;;78.47;47.03;;;;;;;5.85;74.09;100932.33;1693069;83;25914;-74
2021/03/25 05:43:51;;;;;;;78.47;47.45;;;;;;;5.83;73.97;100934.69;1693652;83;25810;-74
2021/03/25 05:46:51;;;;;;;82.08;46.20;;;;;;;5.82;74.07;100945.55;1695685;83;25701;-74
2021/03/25 05:49:43;;;;;;;74.55;44.48;;;;;;;5.79;74.04;100953.09;1693640;82;25812;-74
2021/03/25 05:52:30;;;;;;;65.75;42.55;;;;;;;5.75;74.13;100945.66;1695075;82;25912;-74
2021/03/25 05:55:16;;;;;;;70.20;43.58;;;;;;;5.73;74.23;100955.34;1691123;83;26872;-74
2021/03/25 05:58:16;;;;;;;68.87;41.50;;;;;;;5.72;74.26;100957.09;1692648;83;25745;-74
2021/03/25 06:01:00;;;;;;;66.25;40.35;;;;;;;5.70;74.42;100955.56;1695007;83;32083;-73
2021/03/25 06:03:27;;;;;;;68.40;41.58;;;;;;;5.71;74.45;100955.94;1694659;83;25909;-74
2021/03/25 06:05:57;;;;;;;70.30;40.38;;;;;;;5.67;74.31;100954.03;1694489;83;26713;-74
2021/03/25 06:08:45;;;;;;;67.37;41.90;;;;;;;5.69;74.41;100959.93;1693205;83;25892;-74
2021/03/25 06:11:35;;;;;;;66.40;39.90;;;;;;;5.66;74.24;100968.42;1671987;83;25947;-73
2021/03/25 06:14:21;;;;;;;69.75;42.65;;;;;;;5.66;74.38;100965.83;1625961;85;25860;-74
2021/03/25 06:16:59;;;;;;;72.42;42.78;;;;;;;5.67;74.51;100963.58;1625072;85;26371;-75
2021/03/25 06:20:06;;;;;;;70.05;42.93;;;;;;;5.73;74.52;100965.72;1627653;85;26000;-75
2021/03/25 06:22:50;;;;;;;68.70;41.10;;;;;;;5.70;74.37;100962.89;1627604;85;25841;-73
2021/03/25 06:25:28;;;;;;;72.60;44.13;;;;;;;5.73;74.37;100961.83;1626843;85;25764;-72
2021/03/25 06:28:08;;;;;;;72.70;44.08;;;;;;;5.75;74.43;100959.92;1602511;87;25931;-72
2021/03/25 06:30:41;;;;;;;72.12;44.00;;;;;;;5.77;74.41;100961.94;1626718;85;25845;-72
2021/03/25 06:33:25;;;;;;;69.12;44.53;;;;;;;5.77;74.37;100961.94;1623195;86;25904;-72
2021/03/25 06:35:59;;;;;;;64.45;42.08;;;;;;;5.75;74.29;100959.45;1607793;86;26524;-73
2021/03/25 06:38:42;;;;;;;74.25;45.20;;;;;;;5.70;74.16;100964.64;1619999;86;26455;-74
2021/03/25 06:41:19;;;;;;;69.85;40.92;;;;;;;5.73;74.36;100969.61;1623472;85;25813;-74
2021/03/25 06:43:57;;;;;;;66.95;41.75;;;;;;;5.76;74.26;100966.30;1611229;85;25771;-74
2021/03/25 06:46:37;;;;;;;59.90;38.92;;;;;;;5.79;74.22;100965.24;1599908;88;26098;-74
2021/03/25 06:49:36;;;;;;;67.67;39.20;;;;;;;5.80;74.11;100964.28;1607322;84;25866;-74
2021/03/25 06:52:28;;;;;;;64.72;40.52;;;;;;;5.80;74.13;100962.98;1667457;84;25765;-75
2021/03/25 06:55:08;;;;;;;64.10;40.48;;;;;;;5.94;74.41;100964.06;1671477;84;25748;-71
2021/03/25 06:57:48;;;;;;;65.92;43.13;;;;;;;6.05;74.10;100975.38;1675570;84;25919;-70
2021/03/25 07:00:18;;;;;;;66.20;40.65;;;;;;;5.99;73.89;100976.20;1700501;82;27127;-71
2021/03/25 07:02:47;;;;;;;67.00;41.18;;;;;;;6.05;74.04;100977.48;1689938;82;26459;-70
2021/03/25 07:05:22;;;;;;;70.52;44.50;;;;;;;6.14;74.14;100981.16;1674222;84;25945;-71
2021/03/25 07:08:05;;;;;;;69.85;43.60;;;;;;;6.21;73.99;100981.01;1670080;84;25827;-72
2021/03/25 07:10:32;;;;;;;68.52;43.95;;;;;;;6.22;73.78;100982.20;1680663;84;26191;-71
2021/03/25 07:13:05;;;;;;;64.60;41.08;;;;;;;6.23;73.77;100973.45;1664905;84;25871;-69
2021/03/25 07:15:36;;;;;;;68.80;44.20;;;;;;;6.25;73.56;100976.39;1675892;84;26481;-70
2021/03/25 07:18:27;;;;;;;73.22;45.08;;;;;;;6.24;73.53;100980.76;1693974;82;25852;-70
2021/03/25 07:21:33;;;;;;;68.47;42.75;;;;;;;6.26;73.50;100984.07;1669083;84;25796;-70
2021/03/25 07:24:08;;;;;;;64.05;39.63;;;;;;;6.31;73.71;100978.52;1674625;84;25803;-70
2021/03/25 07:26:42;;;;;;;67.03;40.80;;;;;;;6.37;73.62;100981.44;1675627;84;25723;-69
2021/03/25 07:29:20;;;;;;;62.62;40.43;;;;;;;6.37;73.41;100982.73;1698828;83;26702;-70
2021/03/25 07:32:08;;;;;;;71.22;41.23;;;;;;;6.33;73.24;100985.24;1700304;84;25799;-70
2021/03/25 07:34:48;;;;;;;62.40;39.80;;;;;;;6.38;73.28;100990.05;1646558;86;25995;-75
2021/03/25 07:37:17;;;;;;;;;;;;;;;6.38;73.17;100984.41;1651551;85;25825;-74
2021/03/25 07:39:50;;;;;;;58.98;38.58;;;;;;;6.43;73.26;100987.44;1610651;87;26530;-75
2021/03/25 07:42:32;;;;;;;75.25;37.53;;;;;;;6.49;73.17;100990.02;1625748;87;25822;-74
2021/03/25 07:45:20;;;;;;;65.50;39.65;;;;;;;6.51;72.91;100980.33;1613237;87;26351;-75
2021/03/25 07:47:48;;;;;;;68.05;42.50;;;;;;;6.57;72.70;100989.41;1622855;85;25729;-74
2021/03/25 07:50:35;;;;;;;69.95;41.70;;;;;;;6.60;72.69;100995.64;1594493;87;25955;-73
2021/03/25 07:53:25;;;;;;;70.78;42.08;;;;;;;6.62;72.49;100990.68;1596178;87;25839;-74
2021/03/25 07:56:10;;;;;;;68.90;43.10;;;;;;;6.62;72.07;100991.16;1594571;88;26534;-73
2021/03/25 07:58:46;;;;;;;66.97;41.58;;;;;;;6.60;72.16;100989.16;1619272;87;25781;-74
2021/03/25 08:01:16;;;;;;;72.70;41.10;;;;;;;6.63;71.98;100986.34;1602221;86;26736;-73
2021/03/25 08:03:56;;;;;;;72.70;41.75;;;;;;;6.66;72.03;100986.91;1632841;86;26447;-76
2021/03/25 08:06:30;;;;;;;70.47;42.55;;;;;;;6.70;72.06;100973.66;1610394;87;25605;-75
2021/03/25 08:09:09;;;;;;;71.85;41.08;;;;;;;6.73;72.27;100987.22;1570995;87;25939;-75
2021/03/25 08:12:00;;;;;;;55.67;33.98;;;;;;;6.77;72.11;100982.14;1606573;86;25776;-75
2021/03/25 08:14:33;;;;;;;46.05;30.92;;;;;;;6.81;71.50;100983.52;1635949;86;25912;-75
2021/03/25 08:17:17;;;;;;;51.73;36.45;;;;;;;6.73;70.20;100983.32;1657774;84;25788;-76
2021/03/25 08:19:49;;;;;;;48.58;32.13;;;;;;;6.80;70.61;100981.88;1659219;86;25715;-75
2021/03/25 08:22:50;;;;;;;53.45;35.03;;;;;;;6.79;69.73;100984.59;1660627;84;25868;-76
2021/03/25 08:25:45;;;;;;;62.38;37.75;;;;;;;6.79;69.92;100985.44;1640006;85;25782;-76
2021/03/25 08:28:45;;;;;;;54.58;33.35;;;;;;;6.88;70.35;100976.88;1634243;86;25651;-75
2021/03/25 08:31:36;;;;;;;57.55;34.38;;;;;;;7.04;70.33;100986.84;1664645;84;25761;-75
2021/03/25 08:34:23;;;;;;;50.28;31.95;;;;;;;7.16;70.18;100983.70;1665468;84;25500;-75
2021/03/25 08:37:07;;;;;;;52.33;32.10;;;;;;;7.20;69.59;100985.11;1666345;84;26478;-74
2021/03/25 08:39:55;;;;;;;53.45;35.10;;;;;;;7.28;69.42;100985.75;1665547;84;25445;-74
2021/03/25 08:42:42;;;;;;;51.77;31.97;;;;;;;7.38;69.31;100984.52;1661512;84;25984;-75
2021/03/25 08:45:50;;;;;;;53.10;31.07;;;;;;;7.23;68.08;100986.15;1664634;84;25931;-75
2021/03/25 08:48:44;;;;;;;48.68;30.75;;;;;;;7.10;67.90;100978.53;1665065;84;25737;-77
2021/03/25 08:51:19;;;;;;;56.90;33.88;;;;;;;7.06;68.17;100975.01;1665166;84;26396;-77
2021/03/25 08:53:56;;;;;;;57.25;34.80;;;;;;;7.25;68.85;100975.13;1644546;85;25952;-75
2021/03/25 08:56:44;;;;;;;62.30;37.20;;;;;;;7.48;68.87;100972.39;1663048;84;25939;-74
2021/03/25 08:59:31;;;;;;;56.55;34.98;;;;;;;7.62;68.61;100977.23;1655835;85;25872;-75
2021/03/25 09:02:23;;;;;;;60.03;38.53;;;;;;;7.67;68.53;100971.17;1664674;84;25807;-76
2021/03/25 09:05:13;;;;;;;54.27;36.45;;;;;;;7.81;68.59;100975.67;1666659;84;46397;-75
2021/03/25 09:07:40;;;;;;;53.48;34.60;;;;;;;7.92;68.28;100979.47;1684422;84;26573;-75
2021/03/25 09:10:20;;;;;;;53.92;35.45;;;;;;;8.00;68.01;100972.64;1636001;84;25851;-75
2021/03/25 09:12:47;;;;;;;50.90;33.90;;;;;;;8.03;67.57;100975.46;1670913;83;25804;-76
2021/03/25 09:15:15;;;;;;;58.13;35.75;;;;;;;8.11;67.68;100976.10;1680300;83;25752;-75
2021/03/25 09:17:52;;;;;;;57.23;37.08;;;;;;;8.19;67.47;100982.28;1651665;85;25874;-73
2021/03/25 09:20:29;;;;;;;54.98;36.23;;;;;;;8.25;66.93;100981.41;1668358;84;25906;-73
2021/03/25 09:22:58;;;;;;;53.63;36.90;;;;;;;8.29;67.07;100982.77;1668965;84;25857;-73
2021/03/25 09:25:36;;;;;;;55.55;36.68;;;;;;;8.39;67.06;100976.64;1668150;83;26332;-74
2021/03/25 09:28:11;;;;;;;60.10;35.55;;;;;;;8.47;66.72;100975.16;1666776;84;25832;-76
2021/03/25 09:31:09;;;;;;;52.83;35.17;;;;;;;8.53;66.79;100972.00;1667594;84;26575;-75
2021/03/25 09:33:58;;;;;;;46.50;32.78;;;;;;;8.63;66.74;100973.65;1669288;84;26096;-77
2021/03/25 09:36:34;;;;;;;50.05;33.67;;;;;;;8.66;65.82;100972.55;1664317;84;25983;-78
2021/03/25 09:39:06;;;;;;;52.20;35.50;;;;;;;8.72;65.67;100969.88;1667470;84;25707;-77
2021/03/25 09:41:42;;;;;;;50.17;35.43;;;;;;;8.75;65.42;100964.38;1668834;84;25725;-79
2021/03/25 09:44:17;;;;;;;48.30;33.53;;;;;;;8.78;65.19;100964.92;1666792;85;25963;-77
2021/03/25 09:47:00;;;;;;;47.30;32.15;;;;;;;8.85;65.19;100966.02;1668613;84;25783;-76
2021/03/25 09:49:38;;;;;;;56.58;33.65;;;;;;;8.90;64.82;100964.31;1667918;84;25306;-74
2021/03/25 09:52:14;;;;;;;46.18;33.35;;;;;;;8.92;64.48;100968.06;1669858;84;26494;-76
2021/03/25 09:54:43;;;;;;;44.40;32.30;;;;;;;8.98;64.73;100963.63;1667181;84;25965;-77
2021/03/25 09:59:53;;;;;;;46.77;32.23;;;;;;;9.18;64.07;100957.88;1795244;77;33070;-75
2021/03/25 10:02:51;;;;;;;47.27;33.78;;;;;;;9.13;63.54;100956.17;1728490;81;25761;-74
2021/03/25 10:05:27;;;;;;;48.48;32.42;;;;;;;9.19;63.72;100962.94;1729254;82;25824;-74
2021/03/25 10:08:16;;;;;;;48.02;32.93;;;;;;;9.23;63.39;100959.59;1728434;79;25840;-73
2021/03/25 10:10:59;;;;;;;45.52;32.95;;;;;;;9.22;63.15;100955.31;1751279;80;25734;-74
2021/03/25 10:13:46;;;;;;;47.10;33.40;;;;;;;9.36;63.76;100951.43;1727667;80;25707;-74
2021/03/25 10:16:37;;;;;;;50.00;31.55;;;;;;;9.50;63.35;100958.81;1713240;81;25369;-75
2021/03/25 10:19:08;;;;;;;46.18;30.25;;;;;;;9.44;60.76;100957.60;1716298;81;26374;-75
2021/03/25 10:21:55;;;;;;;46.85;30.68;;;;;;;9.32;62.31;100952.20;1711705;81;25819;-74
2021/03/25 10:24:27;;;;;;;42.75;31.30;;;;;;;9.38;62.08;100949.51;1709679;81;25695;-74
2021/03/25 10:27:17;;;;;;;45.58;33.55;;;;;;;9.43;61.62;100952.52;1711619;81;25947;-75
2021/03/25 10:29:44;;;;;;;49.73;32.75;;;;;;;9.39;61.95;100958.51;1708411;81;26763;-74
2021/03/25 10:32:22;;;;;;;49.40;33.48;;;;;;;9.42;61.83;100954.31;1716905;81;25894;-75
2021/03/25 10:34:52;;;;;;;46.13;32.67;;;;;;;9.46;62.22;100949.13;1697685;81;26306;-74
2021/03/25 10:37:42;;;;;;;44.10;31.85;;;;;;;9.57;61.98;100950.73;1719689;80;25665;-73
2021/03/25 10:40:32;;;;;;;45.85;32.42;;;;;;;9.60;62.00;100943.92;1741377;80;25826;-73
2021/03/25 10:43:18;;;;;;;51.58;32.48;;;;;;;9.64;61.46;100941.38;1742098;80;25753;-74
2021/03/25 10:45:53;;;;;;;48.52;33.48;;;;;;;9.73;61.83;100940.98;1718919;80;25942;-76
2021/03/25 10:48:33;;;;;;;48.98;34.00;;;;;;;9.92;61.67;100935.66;1743571;80;25793;-75
2021/03/25 10:51:19;;;;;;;45.05;32.48;;;;;;;9.99;61.06;100930.69;1714763;81;26324;-74
2021/03/25 10:53:52;;;;;;;49.58;34.75;;;;;;;10.07;60.88;100929.95;1733849;80;26605;-76
2021/03/25 10:56:27;;;;;;;47.53;33.75;;;;;;;9.88;57.66;100923.88;1744448;80;25671;-75
2021/03/25 10:59:06;;;;;;;49.00;35.13;;;;;;;9.80;59.57;100921.17;1704263;82;26115;-75
2021/03/25 11:01:35;;;;;;;50.50;34.95;;;;;;;9.94;60.51;100925.89;1693285;82;26595;-75
2021/03/25 11:04:18;;;;;;;50.03;34.50;;;;;;;10.06;59.86;100917.36;1714898;81;25926;-75
2021/03/25 11:06:46;;;;;;;49.48;33.88;;;;;;;10.13;59.81;100917.11;1673806;83;25779;-75
2021/03/25 11:09:26;;;;;;;47.55;32.83;;;;;;;10.31;60.53;100916.31;1608856;86;26122;-75
2021/03/25 11:12:13;;;;;;;46.50;34.05;;;;;;;10.35;59.77;100914.58;1643687;86;25814;-74
2021/03/25 11:14:44;;;;;;;52.13;34.18;;;;;;;10.37;57.90;100907.91;1616715;86;26076;-75
2021/03/25 11:17:32;;;;;;;48.40;32.98;;;;;;;10.32;58.64;100914.06;1637120;85;25883;-75
2021/03/25 11:20:02;;;;;;;47.30;34.80;;;;;;;10.30;58.96;100906.36;1632001;86;26698;-75
2021/03/25 11:22:32;;;;;;;;;;;;;;;10.39;58.47;100907.25;1595702;87;25973;-74
2021/03/25 11:25:03;;;;;;;51.23;34.80;;;;;;;10.38;57.53;100898.59;1633616;85;26304;-74
2021/03/25 11:27:31;;;;;;;44.75;34.33;;;;;;;10.50;58.58;100895.25;1632841;85;25869;-73
2021/03/25 11:30:05;;;;;;;58.17;35.55;;;;;;;10.65;58.52;100893.74;1633268;86;25857;-74
2021/03/25 11:32:39;;;;;;;44.03;33.15;;;;;;;10.78;58.31;100890.73;1632355;85;26709;-75
2021/03/25 11:35:25;;;;;;;57.20;36.85;;;;;;;10.96;59.01;100893.29;1635131;85;26651;-74
2021/03/25 11:37:53;;;;;;;48.87;35.48;;;;;;;11.16;58.58;100893.91;1629162;85;26269;-74
2021/03/25 11:40:38;;;;;;;52.55;34.98;;;;;;;11.13;57.82;100880.30;1612265;87;26080;-74
2021/03/25 11:43:15;;;;;;;46.68;33.83;;;;;;;11.19;57.63;100875.28;1629224;85;25802;-74
2021/03/25 11:45:45;;;;;;;50.80;35.45;;;;;;;11.29;58.70;100877.30;1661702;84;25505;-76
2021/03/25 11:48:29;;;;;;;49.03;34.58;;;;;;;11.46;57.87;100869.02;1675353;84;25751;-73
2021/03/25 11:51:19;;;;;;;46.92;34.08;;;;;;;11.45;54.92;100871.29;1689387;84;26437;-73
2021/03/25 11:53:52;;;;;;;55.63;37.08;;;;;;;11.32;55.50;100868.28;1688444;83;25915;-72
2021/03/25 11:56:35;;;;;;;52.20;35.38;;;;;;;11.37;56.67;100862.59;1690750;83;25800;-73
2021/03/25 11:59:15;;;;;;;55.17;37.28;;;;;;;11.38;55.90;100864.25;1692679;83;26313;-73
2021/03/25 12:01:45;;;;;;;47.27;35.92;;;;;;;11.41;56.34;100860.00;1695779;83;25781;-74
2021/03/25 12:04:22;;;;;;;47.08;34.53;;;;;;;11.55;56.60;100853.66;1697565;82;26661;-72
2021/03/25 12:07:06;;;;;;;46.18;33.70;;;;;;;11.70;55.03;100855.19;1715514;82;25921;-74
2021/03/25 12:09:34;;;;;;;51.90;35.88;;;;;;;11.66;56.07;100851.23;1682732;83;26379;-76